LANCR55 PHKO-PHNL
Flight info
| Callsign | LANCR55 |
|---|---|
| Flight time | N/A |
| Altitude | 12500 |
| Route | |
| Aircraft | VF35/M-SDFIRY/LB1 |
Departure
| Time | 2026-04-24 00:47 |
|---|---|
| Airport | Ellison Onizuka Kona International Airport at Keāhole (PHKO) |
Arrival
| Time | N/A |
|---|---|
| Airport | Daniel K. Inouye International Airport (PHNL) |
| Time | Latitude | Longitude | Altitude | Speed | Heading |
|---|---|---|---|---|---|
| 2026-04-24 00:41 | 19.72605 | -156.04342 | 44 ft | 0 kts | 5° |
| 2026-04-24 00:42 | 19.72623 | -156.04344 | 45 ft | 9 kts | 339° |
| 2026-04-24 00:42 | 19.72669 | -156.04419 | 45 ft | 11 kts | 359° |
| 2026-04-24 00:43 | 19.72838 | -156.04403 | 48 ft | 37 kts | 5° |
| 2026-04-24 00:43 | 19.73092 | -156.04380 | 48 ft | 35 kts | 5° |
| 2026-04-24 00:43 | 19.73325 | -156.04359 | 48 ft | 33 kts | 4° |
| 2026-04-24 00:43 | 19.73575 | -156.04338 | 43 ft | 39 kts | 5° |
| 2026-04-24 00:44 | 19.73841 | -156.04313 | 40 ft | 38 kts | 5° |
| 2026-04-24 00:44 | 19.74089 | -156.04291 | 41 ft | 34 kts | 4° |
| 2026-04-24 00:44 | 19.74315 | -156.04271 | 44 ft | 31 kts | 4° |
| 2026-04-24 00:44 | 19.74515 | -156.04254 | 48 ft | 28 kts | 4° |
| 2026-04-24 00:45 | 19.74702 | -156.04237 | 48 ft | 26 kts | 6° |
| 2026-04-24 00:45 | 19.74870 | -156.04221 | 51 ft | 23 kts | 5° |
| 2026-04-24 00:45 | 19.75031 | -156.04207 | 48 ft | 24 kts | 5° |
| 2026-04-24 00:45 | 19.75217 | -156.04190 | 44 ft | 29 kts | 5° |
| 2026-04-24 00:46 | 19.75355 | -156.04212 | 43 ft | 17 kts | 293° |
| 2026-04-24 00:46 | 19.75368 | -156.04348 | 40 ft | 22 kts | 275° |
| 2026-04-24 00:46 | 19.75312 | -156.04439 | 41 ft | 16 kts | 184° |
| 2026-04-24 00:46 | 19.75020 | -156.04466 | 45 ft | 98 kts | 185° |
| 2026-04-24 00:47 | 19.73992 | -156.04560 | 81 ft | 185 kts | 187° |
| 2026-04-24 00:47 | 19.72458 | -156.04703 | 455 ft | 260 kts | 188° |
| 2026-04-24 00:47 | 19.71092 | -156.05543 | 864 ft | 227 kts | 257° |
| 2026-04-24 00:47 | 19.71628 | -156.07011 | 1187 ft | 231 kts | 323° |
| 2026-04-24 00:48 | 19.73210 | -156.07394 | 1231 ft | 247 kts | 0° |
| 2026-04-24 00:48 | 19.74935 | -156.07332 | 1263 ft | 249 kts | 0° |
| 2026-04-24 00:48 | 19.76657 | -156.07314 | 1274 ft | 246 kts | 359° |
| 2026-04-24 00:48 | 19.78286 | -156.07119 | 1230 ft | 225 kts | 32° |
| 2026-04-24 00:49 | 19.78862 | -156.05805 | 1129 ft | 199 kts | 101° |
| 2026-04-24 00:49 | 19.77934 | -156.04803 | 729 ft | 199 kts | 158° |
| 2026-04-24 00:49 | 19.76638 | -156.04381 | 335 ft | 194 kts | 174° |
| 2026-04-24 00:49 | 19.75323 | -156.04445 | 56 ft | 181 kts | 188° |
| 2026-04-24 00:50 | 19.74272 | -156.04541 | 44 ft | 121 kts | 185° |
| 2026-04-24 00:50 | 19.73377 | -156.04622 | 70 ft | 176 kts | 187° |
| 2026-04-24 00:50 | 19.71762 | -156.04788 | 574 ft | 276 kts | 194° |
| 2026-04-24 00:50 | 19.70586 | -156.06079 | 1210 ft | 242 kts | 274° |
| 2026-04-24 00:51 | 19.71499 | -156.07487 | 1409 ft | 251 kts | 335° |
| 2026-04-24 00:51 | 19.73215 | -156.07682 | 1374 ft | 244 kts | 358° |
| 2026-04-24 00:51 | 19.74859 | -156.07664 | 1383 ft | 232 kts | 1° |
| 2026-04-24 00:51 | 19.76450 | -156.07593 | 1395 ft | 226 kts | 1° |
| 2026-04-24 00:52 | 19.77931 | -156.07431 | 1344 ft | 211 kts | 27° |
| 2026-04-24 00:52 | 19.78656 | -156.06236 | 1345 ft | 206 kts | 88° |
| 2026-04-24 00:52 | 19.77984 | -156.04916 | 1141 ft | 223 kts | 141° |
| 2026-04-24 00:52 | 19.76495 | -156.04411 | 459 ft | 225 kts | 175° |
| 2026-04-24 00:53 | 19.75028 | -156.04472 | 52 ft | 192 kts | 187° |
| 2026-04-24 00:53 | 19.73921 | -156.04572 | 44 ft | 129 kts | 185° |
| 2026-04-24 00:53 | 19.73134 | -156.04640 | 43 ft | 101 kts | 185° |
| 2026-04-24 00:53 | 19.72683 | -156.04561 | 44 ft | 33 kts | 147° |
| 2026-04-24 00:54 | 19.72642 | -156.04382 | 44 ft | 22 kts | 94° |
| 2026-04-24 00:54 | 19.72675 | -156.04343 | 46 ft | 0 kts | 5° |
| 2026-04-24 00:57 | 19.72686 | -156.04342 | 46 ft | 6 kts | 5° |
| 2026-04-24 00:57 | 19.72763 | -156.04335 | 48 ft | 12 kts | 2° |
| 2026-04-24 00:57 | 19.72880 | -156.04399 | 48 ft | 17 kts | 5° |
| 2026-04-24 00:58 | 19.73045 | -156.04385 | 47 ft | 26 kts | 5° |
| 2026-04-24 00:58 | 19.73218 | -156.04370 | 49 ft | 24 kts | 5° |
| 2026-04-24 00:58 | 19.73385 | -156.04355 | 46 ft | 25 kts | 5° |
| 2026-04-24 00:58 | 19.73582 | -156.04337 | 43 ft | 29 kts | 5° |
| 2026-04-24 00:59 | 19.73777 | -156.04320 | 41 ft | 28 kts | 4° |
| 2026-04-24 00:59 | 19.73971 | -156.04303 | 40 ft | 27 kts | 5° |
| 2026-04-24 00:59 | 19.74155 | -156.04286 | 41 ft | 26 kts | 5° |
| 2026-04-24 00:59 | 19.74325 | -156.04269 | 45 ft | 23 kts | 4° |
| 2026-04-24 01:00 | 19.74493 | -156.04255 | 48 ft | 24 kts | 5° |
| 2026-04-24 01:00 | 19.74657 | -156.04240 | 48 ft | 23 kts | 4° |
| 2026-04-24 01:00 | 19.74811 | -156.04226 | 50 ft | 21 kts | 4° |
| 2026-04-24 01:00 | 19.74960 | -156.04212 | 50 ft | 25 kts | 5° |
| 2026-04-24 01:01 | 19.75137 | -156.04196 | 42 ft | 26 kts | 5° |
| 2026-04-24 01:01 | 19.75298 | -156.04183 | 44 ft | 16 kts | 4° |
| 2026-04-24 01:01 | 19.75360 | -156.04250 | 42 ft | 15 kts | 275° |
| 2026-04-24 01:01 | 19.75366 | -156.04323 | 41 ft | 6 kts | 275° |
| 2026-04-24 01:02 | 19.75367 | -156.04416 | 40 ft | 14 kts | 251° |
| 2026-04-24 01:02 | 19.75247 | -156.04445 | 43 ft | 53 kts | 185° |
| 2026-04-24 01:02 | 19.74466 | -156.04514 | 44 ft | 168 kts | 185° |
| 2026-04-24 01:02 | 19.73071 | -156.04645 | 134 ft | 229 kts | 186° |
| 2026-04-24 01:03 | 19.71376 | -156.04811 | 590 ft | 242 kts | 197° |
| 2026-04-24 01:03 | 19.70314 | -156.06003 | 988 ft | 233 kts | 262° |
| 2026-04-24 01:03 | 19.70712 | -156.07655 | 1035 ft | 239 kts | 308° |
| 2026-04-24 01:03 | 19.72079 | -156.08499 | 1043 ft | 232 kts | 351° |
| 2026-04-24 01:04 | 19.73680 | -156.08503 | 1008 ft | 231 kts | 360° |
| 2026-04-24 01:04 | 19.75289 | -156.08447 | 1029 ft | 232 kts | 0° |
| 2026-04-24 01:04 | 19.76905 | -156.08405 | 1085 ft | 233 kts | 359° |
| 2026-04-24 01:04 | 19.78525 | -156.08396 | 1143 ft | 234 kts | 4° |
| 2026-04-24 01:05 | 19.80152 | -156.08339 | 1174 ft | 234 kts | 7° |
| 2026-04-24 01:05 | 19.81714 | -156.08211 | 1170 ft | 203 kts | 22° |
| 2026-04-24 01:05 | 19.82593 | -156.07283 | 1113 ft | 178 kts | 81° |
| 2026-04-24 01:05 | 19.82062 | -156.06157 | 965 ft | 186 kts | 136° |
| 2026-04-24 01:06 | 19.80933 | -156.05463 | 797 ft | 186 kts | 152° |
| 2026-04-24 01:06 | 19.79731 | -156.04918 | 710 ft | 193 kts | 158° |
| 2026-04-24 01:06 | 19.78457 | -156.04511 | 600 ft | 189 kts | 168° |
| 2026-04-24 01:06 | 19.77166 | -156.04333 | 389 ft | 187 kts | 180° |
| 2026-04-24 01:07 | 19.75883 | -156.04389 | 150 ft | 183 kts | 187° |
| 2026-04-24 01:07 | 19.74674 | -156.04495 | 48 ft | 151 kts | 186° |
| 2026-04-24 01:07 | 19.73838 | -156.04571 | 43 ft | 99 kts | 185° |
| 2026-04-24 01:07 | 19.73223 | -156.04626 | 42 ft | 76 kts | 185° |
| 2026-04-24 01:08 | 19.72850 | -156.04631 | 42 ft | 41 kts | 167° |
| 2026-04-24 01:08 | 19.72655 | -156.04521 | 44 ft | 21 kts | 105° |
| 2026-04-24 01:08 | 19.72585 | -156.04425 | 42 ft | 19 kts | 185° |
| 2026-04-24 01:08 | 19.72471 | -156.04418 | 42 ft | 12 kts | 121° |
| 2026-04-24 01:09 | 19.72474 | -156.04342 | 43 ft | 8 kts | 30° |
| 2026-04-24 01:09 | 19.72487 | -156.04341 | 43 ft | 0 kts | 3° |
| 2026-04-24 01:12 | 19.72491 | -156.04346 | 43 ft | 3 kts | 296° |
| 2026-04-24 01:12 | 19.72467 | -156.04406 | 42 ft | 14 kts | 278° |
| 2026-04-24 01:13 | 19.72576 | -156.04426 | 42 ft | 25 kts | 5° |
| 2026-04-24 01:13 | 19.72755 | -156.04410 | 47 ft | 25 kts | 5° |
| 2026-04-24 01:13 | 19.72920 | -156.04396 | 47 ft | 26 kts | 5° |
| 2026-04-24 01:13 | 19.73120 | -156.04378 | 48 ft | 28 kts | 5° |
| 2026-04-24 01:14 | 19.73312 | -156.04360 | 48 ft | 27 kts | 5° |
| 2026-04-24 01:14 | 19.73504 | -156.04343 | 44 ft | 28 kts | 4° |
| 2026-04-24 01:14 | 19.73697 | -156.04326 | 42 ft | 28 kts | 5° |
| 2026-04-24 01:14 | 19.73888 | -156.04310 | 40 ft | 27 kts | 5° |
| 2026-04-24 01:15 | 19.74058 | -156.04294 | 41 ft | 21 kts | 4° |
| 2026-04-24 01:15 | 19.74197 | -156.04281 | 42 ft | 19 kts | 5° |
| 2026-04-24 01:15 | 19.74323 | -156.04271 | 44 ft | 17 kts | 6° |
| 2026-04-24 01:15 | 19.74455 | -156.04258 | 47 ft | 20 kts | 5° |
| 2026-04-24 01:16 | 19.74605 | -156.04245 | 48 ft | 24 kts | 5° |
| 2026-04-24 01:16 | 19.74770 | -156.04230 | 49 ft | 23 kts | 5° |
| 2026-04-24 01:16 | 19.74949 | -156.04214 | 50 ft | 29 kts | 5° |
| 2026-04-24 01:16 | 19.75153 | -156.04196 | 45 ft | 30 kts | 5° |
| 2026-04-24 01:17 | 19.75333 | -156.04187 | 44 ft | 16 kts | 336° |
| 2026-04-24 01:17 | 19.75366 | -156.04311 | 41 ft | 28 kts | 274° |
| 2026-04-24 01:17 | 19.75320 | -156.04438 | 41 ft | 18 kts | 187° |
| 2026-04-24 01:17 | 19.75003 | -156.04467 | 45 ft | 102 kts | 185° |
| 2026-04-24 01:18 | 19.73972 | -156.04566 | 84 ft | 181 kts | 187° |
| 2026-04-24 01:18 | 19.72471 | -156.04698 | 371 ft | 247 kts | 187° |
| 2026-04-24 01:18 | 19.71011 | -156.05344 | 704 ft | 225 kts | 242° |
| 2026-04-24 01:18 | 19.71126 | -156.06904 | 916 ft | 233 kts | 303° |
| 2026-04-24 01:19 | 19.72513 | -156.07793 | 976 ft | 247 kts | 352° |
| 2026-04-24 01:19 | 19.74252 | -156.07796 | 985 ft | 248 kts | 359° |
| 2026-04-24 01:19 | 19.75975 | -156.07760 | 1010 ft | 247 kts | 0° |
| 2026-04-24 01:19 | 19.77551 | -156.07670 | 969 ft | 208 kts | 18° |
| 2026-04-24 01:20 | 19.78314 | -156.06635 | 961 ft | 181 kts | 84° |
| 2026-04-24 01:20 | 19.77889 | -156.05409 | 712 ft | 184 kts | 130° |
| 2026-04-24 01:20 | 19.76823 | -156.04609 | 459 ft | 191 kts | 159° |
| 2026-04-24 01:20 | 19.75557 | -156.04435 | 125 ft | 180 kts | 186° |
| 2026-04-24 01:21 | 19.74450 | -156.04528 | 44 ft | 129 kts | 185° |
| 2026-04-24 01:21 | 19.73637 | -156.04601 | 45 ft | 160 kts | 185° |
| 2026-04-24 01:21 | 19.72130 | -156.04745 | 392 ft | 257 kts | 187° |
| 2026-04-24 01:21 | 19.70487 | -156.05224 | 841 ft | 243 kts | 228° |
| 2026-04-24 01:22 | 19.70274 | -156.06862 | 1028 ft | 244 kts | 300° |
| 2026-04-24 01:22 | 19.71715 | -156.07696 | 1129 ft | 248 kts | 359° |
| 2026-04-24 01:22 | 19.73419 | -156.07778 | 1147 ft | 242 kts | 340° |
| 2026-04-24 01:22 | 19.74902 | -156.08632 | 1801 ft | 243 kts | 328° |
| 2026-04-24 01:23 | 19.76374 | -156.09575 | 2457 ft | 250 kts | 329° |
| 2026-04-24 01:23 | 19.77872 | -156.10517 | 3140 ft | 252 kts | 329° |
| 2026-04-24 01:23 | 19.79391 | -156.11500 | 3829 ft | 256 kts | 329° |
| 2026-04-24 01:23 | 19.80923 | -156.12502 | 4528 ft | 257 kts | 329° |
| 2026-04-24 01:24 | 19.82463 | -156.13499 | 5242 ft | 259 kts | 329° |
| 2026-04-24 01:24 | 19.84146 | -156.14224 | 5898 ft | 265 kts | 346° |
| 2026-04-24 01:24 | 19.85945 | -156.14694 | 6221 ft | 268 kts | 346° |
| 2026-04-24 01:24 | 19.87814 | -156.15182 | 6373 ft | 277 kts | 346° |
| 2026-04-24 01:25 | 19.89672 | -156.15662 | 6438 ft | 279 kts | 346° |
| 2026-04-24 01:25 | 19.91559 | -156.16153 | 6467 ft | 280 kts | 346° |
| 2026-04-24 01:25 | 19.93441 | -156.16643 | 6478 ft | 279 kts | 346° |
| 2026-04-24 01:25 | 19.95324 | -156.17134 | 6485 ft | 279 kts | 346° |
| 2026-04-24 01:26 | 19.97209 | -156.17623 | 6491 ft | 278 kts | 346° |
| 2026-04-24 01:26 | 19.99088 | -156.18112 | 6493 ft | 279 kts | 346° |
| 2026-04-24 01:26 | 20.00971 | -156.18603 | 6493 ft | 278 kts | 346° |
| 2026-04-24 01:26 | 20.02851 | -156.19093 | 6490 ft | 278 kts | 346° |
| 2026-04-24 01:27 | 20.04733 | -156.19583 | 6490 ft | 278 kts | 346° |
| 2026-04-24 01:27 | 20.06587 | -156.20066 | 6491 ft | 278 kts | 346° |
| 2026-04-24 01:27 | 20.08468 | -156.20556 | 6492 ft | 279 kts | 346° |
| 2026-04-24 01:27 | 20.10350 | -156.21047 | 6497 ft | 278 kts | 346° |
| 2026-04-24 01:28 | 20.12227 | -156.21538 | 6499 ft | 276 kts | 346° |
| 2026-04-24 01:28 | 20.14102 | -156.22026 | 6508 ft | 278 kts | 346° |
| 2026-04-24 01:28 | 20.15979 | -156.22515 | 6500 ft | 277 kts | 346° |
| 2026-04-24 01:28 | 20.17852 | -156.23004 | 6501 ft | 277 kts | 346° |
| 2026-04-24 01:29 | 20.19727 | -156.23493 | 6501 ft | 277 kts | 346° |
| 2026-04-24 01:29 | 20.21600 | -156.23982 | 6504 ft | 277 kts | 346° |
| 2026-04-24 01:29 | 20.23451 | -156.24466 | 6501 ft | 278 kts | 346° |
| 2026-04-24 01:29 | 20.25326 | -156.24955 | 6500 ft | 277 kts | 346° |
| 2026-04-24 01:30 | 20.27201 | -156.25452 | 6502 ft | 278 kts | 347° |
| 2026-04-24 01:30 | 20.29079 | -156.25960 | 6507 ft | 279 kts | 344° |
| 2026-04-24 01:30 | 20.30920 | -156.26615 | 6504 ft | 279 kts | 341° |
| 2026-04-24 01:30 | 20.32738 | -156.27331 | 6502 ft | 279 kts | 340° |
| 2026-04-24 01:31 | 20.34551 | -156.28073 | 6505 ft | 278 kts | 340° |
| 2026-04-24 01:31 | 20.36340 | -156.28897 | 6291 ft | 284 kts | 334° |
| 2026-04-24 01:31 | 20.38043 | -156.29883 | 5557 ft | 274 kts | 331° |
| 2026-04-24 01:31 | 20.39666 | -156.30917 | 4989 ft | 270 kts | 331° |
| 2026-04-24 01:32 | 20.41261 | -156.31978 | 4718 ft | 270 kts | 330° |
| 2026-04-24 01:32 | 20.42822 | -156.33031 | 4619 ft | 269 kts | 329° |
| 2026-04-24 01:32 | 20.44399 | -156.34101 | 4570 ft | 269 kts | 329° |
| 2026-04-24 01:32 | 20.45979 | -156.35182 | 4554 ft | 269 kts | 329° |
| 2026-04-24 01:33 | 20.47560 | -156.36263 | 4541 ft | 270 kts | 329° |
| 2026-04-24 01:33 | 20.49138 | -156.37336 | 4538 ft | 270 kts | 330° |
| 2026-04-24 01:33 | 20.50718 | -156.38413 | 4541 ft | 271 kts | 329° |
| 2026-04-24 01:33 | 20.52297 | -156.39496 | 4532 ft | 271 kts | 329° |
| 2026-04-24 01:34 | 20.53879 | -156.40578 | 4527 ft | 270 kts | 329° |
| 2026-04-24 01:34 | 20.55453 | -156.41650 | 4522 ft | 268 kts | 329° |
| 2026-04-24 01:34 | 20.57003 | -156.42717 | 4520 ft | 267 kts | 329° |
| 2026-04-24 01:34 | 20.58611 | -156.43720 | 4527 ft | 267 kts | 340° |
| 2026-04-24 01:35 | 20.60403 | -156.44369 | 3936 ft | 271 kts | 346° |
| 2026-04-24 01:35 | 20.62214 | -156.44870 | 3250 ft | 266 kts | 350° |
| 2026-04-24 01:35 | 20.64001 | -156.45109 | 2874 ft | 255 kts | 356° |
| 2026-04-24 01:35 | 20.65755 | -156.45222 | 2688 ft | 250 kts | 358° |
| 2026-04-24 01:36 | 20.67517 | -156.45301 | 2617 ft | 253 kts | 359° |
| 2026-04-24 01:36 | 20.69252 | -156.45363 | 2620 ft | 252 kts | 359° |
| 2026-04-24 01:36 | 20.71009 | -156.45418 | 2579 ft | 253 kts | 359° |
| 2026-04-24 01:36 | 20.72701 | -156.45481 | 2561 ft | 242 kts | 355° |
| 2026-04-24 01:37 | 20.74382 | -156.45706 | 2551 ft | 243 kts | 352° |
| 2026-04-24 01:37 | 20.76045 | -156.46017 | 2543 ft | 243 kts | 351° |
| 2026-04-24 01:37 | 20.77694 | -156.46381 | 2390 ft | 239 kts | 351° |
| 2026-04-24 01:37 | 20.79254 | -156.46754 | 2041 ft | 224 kts | 349° |